sensor_id;sensor_type;location;lat;lon;timestamp;temperature;humidity
1337;DHT22;662;48.814;9.318;2023-12-20T00:01:01;8.50;69.20
1337;DHT22;662;48.814;9.318;2023-12-20T00:03:28;8.50;69.20
1337;DHT22;662;48.814;9.318;2023-12-20T00:05:54;8.50;69.30
1337;DHT22;662;48.814;9.318;2023-12-20T00:08:19;8.60;69.70
1337;DHT22;662;48.814;9.318;2023-12-20T00:10:45;8.50;69.90
1337;DHT22;662;48.814;9.318;2023-12-20T00:13:11;8.60;70.80
1337;DHT22;662;48.814;9.318;2023-12-20T00:15:37;8.60;70.20
1337;DHT22;662;48.814;9.318;2023-12-20T00:18:03;8.60;70.30
1337;DHT22;662;48.814;9.318;2023-12-20T00:20:29;8.60;70.30
1337;DHT22;662;48.814;9.318;2023-12-20T00:22:56;8.60;70.40
1337;DHT22;662;48.814;9.318;2023-12-20T00:25:23;8.60;70.50
1337;DHT22;662;48.814;9.318;2023-12-20T00:27:49;8.70;70.80
1337;DHT22;662;48.814;9.318;2023-12-20T00:30:15;8.60;71.00
1337;DHT22;662;48.814;9.318;2023-12-20T00:32:40;8.70;71.40
1337;DHT22;662;48.814;9.318;2023-12-20T00:35:12;8.70;71.50
1337;DHT22;662;48.814;9.318;2023-12-20T00:37:37;8.70;71.70
1337;DHT22;662;48.814;9.318;2023-12-20T00:40:03;8.70;71.90
1337;DHT22;662;48.814;9.318;2023-12-20T00:42:30;8.70;72.00
1337;DHT22;662;48.814;9.318;2023-12-20T00:44:55;8.70;72.30
1337;DHT22;662;48.814;9.318;2023-12-20T00:47:21;8.70;72.50
1337;DHT22;662;48.814;9.318;2023-12-20T00:49:47;8.70;72.80
1337;DHT22;662;48.814;9.318;2023-12-20T00:52:13;8.70;73.10
1337;DHT22;662;48.814;9.318;2023-12-20T00:54:38;8.70;73.30
1337;DHT22;662;48.814;9.318;2023-12-20T00:57:04;8.70;73.60
1337;DHT22;662;48.814;9.318;2023-12-20T00:59:30;8.70;73.80
1337;DHT22;662;48.814;9.318;2023-12-20T01:01:55;8.70;74.00
1337;DHT22;662;48.814;9.318;2023-12-20T01:04:21;8.70;74.10
1337;DHT22;662;48.814;9.318;2023-12-20T01:06:47;8.60;74.10
1337;DHT22;662;48.814;9.318;2023-12-20T01:09:12;8.60;74.60
1337;DHT22;662;48.814;9.318;2023-12-20T01:11:38;8.60;74.90
1337;DHT22;662;48.814;9.318;2023-12-20T01:14:03;8.60;75.20
1337;DHT22;662;48.814;9.318;2023-12-20T01:16:29;8.50;75.20
1337;DHT22;662;48.814;9.318;2023-12-20T01:18:54;8.50;75.30
1337;DHT22;662;48.814;9.318;2023-12-20T01:21:20;8.50;75.30
1337;DHT22;662;48.814;9.318;2023-12-20T01:23:46;8.50;75.30
1337;DHT22;662;48.814;9.318;2023-12-20T01:26:11;8.50;75.20
1337;DHT22;662;48.814;9.318;2023-12-20T01:28:37;8.50;75.20
1337;DHT22;662;48.814;9.318;2023-12-20T01:31:03;8.50;75.30
1337;DHT22;662;48.814;9.318;2023-12-20T01:33:29;8.40;75.30
1337;DHT22;662;48.814;9.318;2023-12-20T01:35:55;8.50;75.40
1337;DHT22;662;48.814;9.318;2023-12-20T01:38:20;8.40;75.50
1337;DHT22;662;48.814;9.318;2023-12-20T01:40:46;8.40;75.60
1337;DHT22;662;48.814;9.318;2023-12-20T01:43:11;8.40;76.00
1337;DHT22;662;48.814;9.318;2023-12-20T01:45:38;8.40;76.20
1337;DHT22;662;48.814;9.318;2023-12-20T01:48:05;8.40;76.40
1337;DHT22;662;48.814;9.318;2023-12-20T01:50:31;8.40;76.50
1337;DHT22;662;48.814;9.318;2023-12-20T01:53:02;8.40;76.60
1337;DHT22;662;48.814;9.318;2023-12-20T01:55:31;8.40;76.60
1337;DHT22;662;48.814;9.318;2023-12-20T01:57:59;8.30;76.50
1337;DHT22;662;48.814;9.318;2023-12-20T02:00:26;8.30;76.60
1337;DHT22;662;48.814;9.318;2023-12-20T02:02:53;8.30;76.80
1337;DHT22;662;48.814;9.318;2023-12-20T02:05:21;8.30;76.90
1337;DHT22;662;48.814;9.318;2023-12-20T02:07:47;8.30;77.20
1337;DHT22;662;48.814;9.318;2023-12-20T02:10:13;8.30;77.40
1337;DHT22;662;48.814;9.318;2023-12-20T02:12:38;8.30;77.60
1337;DHT22;662;48.814;9.318;2023-12-20T02:15:05;8.30;77.80
1337;DHT22;662;48.814;9.318;2023-12-20T02:17:32;8.30;77.90
1337;DHT22;662;48.814;9.318;2023-12-20T02:19:58;8.30;78.10
1337;DHT22;662;48.814;9.318;2023-12-20T02:22:23;8.30;78.30
1337;DHT22;662;48.814;9.318;2023-12-20T02:24:49;8.20;78.30
1337;DHT22;662;48.814;9.318;2023-12-20T02:27:15;8.30;78.50
1337;DHT22;662;48.814;9.318;2023-12-20T02:29:43;8.30;78.50
1337;DHT22;662;48.814;9.318;2023-12-20T02:32:08;8.30;78.50
1337;DHT22;662;48.814;9.318;2023-12-20T02:34:34;8.20;78.50
1337;DHT22;662;48.814;9.318;2023-12-20T02:37:00;8.30;78.70
1337;DHT22;662;48.814;9.318;2023-12-20T02:39:26;8.20;78.60
1337;DHT22;662;48.814;9.318;2023-12-20T02:41:52;8.20;78.70
1337;DHT22;662;48.814;9.318;2023-12-20T02:44:17;8.30;78.90
1337;DHT22;662;48.814;9.318;2023-12-20T02:46:43;8.20;78.70
1337;DHT22;662;48.814;9.318;2023-12-20T02:49:08;8.20;78.80
1337;DHT22;662;48.814;9.318;2023-12-20T02:51:34;8.20;78.80
1337;DHT22;662;48.814;9.318;2023-12-20T02:54:00;8.20;78.90
1337;DHT22;662;48.814;9.318;2023-12-20T02:56:25;8.20;79.00
1337;DHT22;662;48.814;9.318;2023-12-20T02:58:51;8.20;79.00
1337;DHT22;662;48.814;9.318;2023-12-20T03:01:16;8.20;79.10
1337;DHT22;662;48.814;9.318;2023-12-20T03:03:42;8.20;79.10
1337;DHT22;662;48.814;9.318;2023-12-20T03:06:08;8.20;79.30
1337;DHT22;662;48.814;9.318;2023-12-20T03:08:33;8.20;79.40
1337;DHT22;662;48.814;9.318;2023-12-20T03:10:59;8.20;79.40
1337;DHT22;662;48.814;9.318;2023-12-20T03:13:25;8.20;79.60
1337;DHT22;662;48.814;9.318;2023-12-20T03:15:51;8.20;79.60
1337;DHT22;662;48.814;9.318;2023-12-20T03:18:16;8.20;79.70
1337;DHT22;662;48.814;9.318;2023-12-20T03:20:43;8.20;79.80
1337;DHT22;662;48.814;9.318;2023-12-20T03:23:09;8.20;79.90
1337;DHT22;662;48.814;9.318;2023-12-20T03:25:34;8.20;80.00
1337;DHT22;662;48.814;9.318;2023-12-20T03:28:00;8.10;80.00
1337;DHT22;662;48.814;9.318;2023-12-20T03:30:26;8.20;80.10
1337;DHT22;662;48.814;9.318;2023-12-20T03:32:51;8.20;80.20
1337;DHT22;662;48.814;9.318;2023-12-20T03:35:17;8.10;80.20
1337;DHT22;662;48.814;9.318;2023-12-20T03:37:42;8.10;80.20
1337;DHT22;662;48.814;9.318;2023-12-20T03:40:09;8.10;80.20
1337;DHT22;662;48.814;9.318;2023-12-20T03:42:34;8.10;80.20
1337;DHT22;662;48.814;9.318;2023-12-20T03:45:00;8.10;80.30
1337;DHT22;662;48.814;9.318;2023-12-20T03:47:25;8.10;80.40
1337;DHT22;662;48.814;9.318;2023-12-20T03:49:51;8.10;80.40
1337;DHT22;662;48.814;9.318;2023-12-20T03:52:17;8.10;80.50
1337;DHT22;662;48.814;9.318;2023-12-20T03:54:42;8.10;80.50
1337;DHT22;662;48.814;9.318;2023-12-20T03:57:08;8.10;80.60
1337;DHT22;662;48.814;9.318;2023-12-20T03:59:37;8.00;80.60
1337;DHT22;662;48.814;9.318;2023-12-20T04:02:04;8.00;80.70
1337;DHT22;662;48.814;9.318;2023-12-20T04:04:30;8.00;80.80
1337;DHT22;662;48.814;9.318;2023-12-20T04:06:55;8.10;81.00
1337;DHT22;662;48.814;9.318;2023-12-20T04:09:21;8.00;80.90
1337;DHT22;662;48.814;9.318;2023-12-20T04:11:46;8.00;80.90
1337;DHT22;662;48.814;9.318;2023-12-20T04:14:12;8.00;80.90
1337;DHT22;662;48.814;9.318;2023-12-20T04:16:38;8.00;80.90
1337;DHT22;662;48.814;9.318;2023-12-20T04:19:04;8.00;81.00
1337;DHT22;662;48.814;9.318;2023-12-20T04:21:30;8.00;81.10
1337;DHT22;662;48.814;9.318;2023-12-20T04:23:55;7.90;81.10
1337;DHT22;662;48.814;9.318;2023-12-20T04:26:21;8.00;81.20
1337;DHT22;662;48.814;9.318;2023-12-20T04:28:46;7.90;81.10
1337;DHT22;662;48.814;9.318;2023-12-20T04:31:12;8.00;81.20
1337;DHT22;662;48.814;9.318;2023-12-20T04:33:37;7.90;81.10
1337;DHT22;662;48.814;9.318;2023-12-20T04:36:03;7.90;81.10
1337;DHT22;662;48.814;9.318;2023-12-20T04:38:29;7.90;81.10
1337;DHT22;662;48.814;9.318;2023-12-20T04:40:55;7.90;81.30
1337;DHT22;662;48.814;9.318;2023-12-20T04:43:21;7.90;81.30
1337;DHT22;662;48.814;9.318;2023-12-20T04:45:46;7.90;81.40
1337;DHT22;662;48.814;9.318;2023-12-20T04:48:12;7.90;81.40
1337;DHT22;662;48.814;9.318;2023-12-20T04:50:37;7.90;81.50
1337;DHT22;662;48.814;9.318;2023-12-20T04:53:03;7.90;81.50
1337;DHT22;662;48.814;9.318;2023-12-20T04:55:29;7.90;81.40
1337;DHT22;662;48.814;9.318;2023-12-20T04:57:55;7.90;81.40
1337;DHT22;662;48.814;9.318;2023-12-20T05:00:21;7.90;81.40
1337;DHT22;662;48.814;9.318;2023-12-20T05:02:49;7.90;81.30
1337;DHT22;662;48.814;9.318;2023-12-20T05:05:15;7.90;81.40
1337;DHT22;662;48.814;9.318;2023-12-20T05:07:43;7.90;81.40
1337;DHT22;662;48.814;9.318;2023-12-20T05:10:09;7.90;81.40
1337;DHT22;662;48.814;9.318;2023-12-20T05:12:39;7.90;81.30
1337;DHT22;662;48.814;9.318;2023-12-20T05:15:06;7.90;81.40
1337;DHT22;662;48.814;9.318;2023-12-20T05:17:32;7.90;81.50
1337;DHT22;662;48.814;9.318;2023-12-20T05:19:57;7.90;81.40
1337;DHT22;662;48.814;9.318;2023-12-20T05:22:24;7.90;81.40
1337;DHT22;662;48.814;9.318;2023-12-20T05:24:50;7.90;81.40
1337;DHT22;662;48.814;9.318;2023-12-20T05:27:16;7.90;81.40
1337;DHT22;662;48.814;9.318;2023-12-20T05:29:42;7.90;81.50
1337;DHT22;662;48.814;9.318;2023-12-20T05:32:08;7.90;81.50
1337;DHT22;662;48.814;9.318;2023-12-20T05:34:33;7.90;81.50
1337;DHT22;662;48.814;9.318;2023-12-20T05:36:59;7.90;81.60
1337;DHT22;662;48.814;9.318;2023-12-20T05:39:24;7.90;81.50
1337;DHT22;662;48.814;9.318;2023-12-20T05:41:51;7.80;81.60
1337;DHT22;662;48.814;9.318;2023-12-20T05:44:16;7.80;81.70
1337;DHT22;662;48.814;9.318;2023-12-20T05:46:42;7.80;81.70
1337;DHT22;662;48.814;9.318;2023-12-20T05:49:07;7.80;81.70
1337;DHT22;662;48.814;9.318;2023-12-20T05:51:33;7.80;81.80
1337;DHT22;662;48.814;9.318;2023-12-20T05:53:59;7.80;81.80
1337;DHT22;662;48.814;9.318;2023-12-20T05:56:25;7.80;82.00
1337;DHT22;662;48.814;9.318;2023-12-20T05:58:50;7.80;82.10
1337;DHT22;662;48.814;9.318;2023-12-20T06:01:16;7.80;82.20
1337;DHT22;662;48.814;9.318;2023-12-20T06:03:44;7.80;82.30
1337;DHT22;662;48.814;9.318;2023-12-20T06:06:11;7.80;82.40
1337;DHT22;662;48.814;9.318;2023-12-20T06:08:39;7.80;82.50
1337;DHT22;662;48.814;9.318;2023-12-20T06:11:05;7.80;82.60
1337;DHT22;662;48.814;9.318;2023-12-20T06:13:31;7.80;82.80
1337;DHT22;662;48.814;9.318;2023-12-20T06:15:57;7.80;82.90
1337;DHT22;662;48.814;9.318;2023-12-20T06:18:23;7.80;82.90
1337;DHT22;662;48.814;9.318;2023-12-20T06:20:48;7.80;83.00
1337;DHT22;662;48.814;9.318;2023-12-20T06:23:14;7.80;83.00
1337;DHT22;662;48.814;9.318;2023-12-20T06:25:41;7.80;83.00
1337;DHT22;662;48.814;9.318;2023-12-20T06:28:06;7.80;83.10
1337;DHT22;662;48.814;9.318;2023-12-20T06:30:36;7.80;83.20
1337;DHT22;662;48.814;9.318;2023-12-20T06:33:01;7.80;83.20
1337;DHT22;662;48.814;9.318;2023-12-20T06:35:27;7.80;83.30
1337;DHT22;662;48.814;9.318;2023-12-20T06:37:53;7.80;83.40
1337;DHT22;662;48.814;9.318;2023-12-20T06:40:19;7.80;83.50
1337;DHT22;662;48.814;9.318;2023-12-20T06:42:46;7.80;83.50
1337;DHT22;662;48.814;9.318;2023-12-20T06:45:12;7.80;83.60
1337;DHT22;662;48.814;9.318;2023-12-20T06:47:38;7.90;83.70
1337;DHT22;662;48.814;9.318;2023-12-20T06:50:04;7.90;83.70
1337;DHT22;662;48.814;9.318;2023-12-20T06:52:30;7.90;83.70
1337;DHT22;662;48.814;9.318;2023-12-20T06:54:55;7.90;84.40
1337;DHT22;662;48.814;9.318;2023-12-20T06:57:21;7.90;83.60
1337;DHT22;662;48.814;9.318;2023-12-20T06:59:47;7.90;83.60
1337;DHT22;662;48.814;9.318;2023-12-20T07:02:12;7.90;83.60
1337;DHT22;662;48.814;9.318;2023-12-20T07:04:41;7.90;83.50
1337;DHT22;662;48.814;9.318;2023-12-20T07:07:07;7.90;83.50
1337;DHT22;662;48.814;9.318;2023-12-20T07:09:33;7.90;83.40
1337;DHT22;662;48.814;9.318;2023-12-20T07:11:59;8.00;83.50
1337;DHT22;662;48.814;9.318;2023-12-20T07:14:25;8.00;83.60
1337;DHT22;662;48.814;9.318;2023-12-20T07:16:50;8.00;83.80
1337;DHT22;662;48.814;9.318;2023-12-20T07:19:16;7.90;83.70
1337;DHT22;662;48.814;9.318;2023-12-20T07:21:45;7.90;83.80
1337;DHT22;662;48.814;9.318;2023-12-20T07:24:11;7.90;84.00
1337;DHT22;662;48.814;9.318;2023-12-20T07:26:37;7.90;84.30
1337;DHT22;662;48.814;9.318;2023-12-20T07:29:07;7.90;84.50
1337;DHT22;662;48.814;9.318;2023-12-20T07:31:32;7.90;84.70
1337;DHT22;662;48.814;9.318;2023-12-20T07:33:58;7.90;84.90
1337;DHT22;662;48.814;9.318;2023-12-20T07:36:24;8.00;85.10
1337;DHT22;662;48.814;9.318;2023-12-20T07:38:49;7.90;85.00
1337;DHT22;662;48.814;9.318;2023-12-20T07:41:15;8.00;85.10
1337;DHT22;662;48.814;9.318;2023-12-20T07:43:46;7.90;85.00
1337;DHT22;662;48.814;9.318;2023-12-20T07:46:12;7.90;85.00
1337;DHT22;662;48.814;9.318;2023-12-20T07:48:38;7.90;85.00
1337;DHT22;662;48.814;9.318;2023-12-20T07:51:04;7.90;85.20
1337;DHT22;662;48.814;9.318;2023-12-20T07:53:31;8.00;85.20
1337;DHT22;662;48.814;9.318;2023-12-20T07:55:56;7.90;85.10
1337;DHT22;662;48.814;9.318;2023-12-20T07:58:22;8.00;85.10
1337;DHT22;662;48.814;9.318;2023-12-20T08:00:50;8.00;84.90
1337;DHT22;662;48.814;9.318;2023-12-20T08:03:18;7.90;84.70
1337;DHT22;662;48.814;9.318;2023-12-20T08:05:43;8.00;84.60
1337;DHT22;662;48.814;9.318;2023-12-20T08:08:09;8.00;84.30
1337;DHT22;662;48.814;9.318;2023-12-20T08:10:35;8.00;83.90
1337;DHT22;662;48.814;9.318;2023-12-20T08:13:01;8.00;83.80
1337;DHT22;662;48.814;9.318;2023-12-20T08:15:26;8.00;83.60
1337;DHT22;662;48.814;9.318;2023-12-20T08:17:52;8.00;83.50
1337;DHT22;662;48.814;9.318;2023-12-20T08:20:18;8.00;83.20
1337;DHT22;662;48.814;9.318;2023-12-20T08:22:44;8.00;82.90
1337;DHT22;662;48.814;9.318;2023-12-20T08:25:09;8.00;82.60
1337;DHT22;662;48.814;9.318;2023-12-20T08:27:40;8.00;82.40
1337;DHT22;662;48.814;9.318;2023-12-20T08:30:07;8.00;81.80
1337;DHT22;662;48.814;9.318;2023-12-20T08:32:33;7.90;81.40
1337;DHT22;662;48.814;9.318;2023-12-20T08:34:59;7.90;81.40
1337;DHT22;662;48.814;9.318;2023-12-20T08:37:25;7.90;81.30
1337;DHT22;662;48.814;9.318;2023-12-20T08:39:50;7.90;81.20
1337;DHT22;662;48.814;9.318;2023-12-20T08:42:16;7.90;80.80
1337;DHT22;662;48.814;9.318;2023-12-20T08:44:42;7.90;80.70
1337;DHT22;662;48.814;9.318;2023-12-20T08:47:07;7.80;80.50
1337;DHT22;662;48.814;9.318;2023-12-20T08:49:33;7.80;80.40
1337;DHT22;662;48.814;9.318;2023-12-20T08:51:59;7.80;80.10
1337;DHT22;662;48.814;9.318;2023-12-20T08:54:24;7.80;80.00
1337;DHT22;662;48.814;9.318;2023-12-20T08:56:53;7.70;79.60
1337;DHT22;662;48.814;9.318;2023-12-20T08:59:20;7.70;79.50
1337;DHT22;662;48.814;9.318;2023-12-20T09:01:45;7.70;79.20
1337;DHT22;662;48.814;9.318;2023-12-20T09:04:11;7.60;79.10
1337;DHT22;662;48.814;9.318;2023-12-20T09:06:37;7.70;79.00
1337;DHT22;662;48.814;9.318;2023-12-20T09:09:03;7.60;78.70
1337;DHT22;662;48.814;9.318;2023-12-20T09:11:28;7.60;78.60
1337;DHT22;662;48.814;9.318;2023-12-20T09:13:54;7.60;78.50
1337;DHT22;662;48.814;9.318;2023-12-20T09:16:20;7.60;78.20
1337;DHT22;662;48.814;9.318;2023-12-20T09:18:45;7.60;78.00
1337;DHT22;662;48.814;9.318;2023-12-20T09:21:11;7.60;78.10
1337;DHT22;662;48.814;9.318;2023-12-20T09:23:37;7.60;77.80
1337;DHT22;662;48.814;9.318;2023-12-20T09:26:04;7.60;77.50
1337;DHT22;662;48.814;9.318;2023-12-20T09:28:29;7.60;77.40
1337;DHT22;662;48.814;9.318;2023-12-20T09:30:55;7.70;77.40
1337;DHT22;662;48.814;9.318;2023-12-20T09:33:21;7.70;77.30
1337;DHT22;662;48.814;9.318;2023-12-20T09:35:50;7.70;77.20
1337;DHT22;662;48.814;9.318;2023-12-20T09:38:15;7.80;76.90
1337;DHT22;662;48.814;9.318;2023-12-20T09:40:42;7.80;76.70
1337;DHT22;662;48.814;9.318;2023-12-20T09:43:14;7.80;76.30
1337;DHT22;662;48.814;9.318;2023-12-20T09:45:41;7.80;76.20
1337;DHT22;662;48.814;9.318;2023-12-20T09:48:11;7.90;76.20
1337;DHT22;662;48.814;9.318;2023-12-20T09:50:37;7.90;75.40
1337;DHT22;662;48.814;9.318;2023-12-20T09:53:14;7.90;75.20
1337;DHT22;662;48.814;9.318;2023-12-20T09:55:41;7.90;75.10
1337;DHT22;662;48.814;9.318;2023-12-20T09:58:07;7.90;74.90
1337;DHT22;662;48.814;9.318;2023-12-20T10:00:34;7.90;74.70
1337;DHT22;662;48.814;9.318;2023-12-20T10:03:15;8.00;74.20
1337;DHT22;662;48.814;9.318;2023-12-20T10:05:43;8.00;73.10
1337;DHT22;662;48.814;9.318;2023-12-20T10:08:10;8.00;72.50
1337;DHT22;662;48.814;9.318;2023-12-20T10:10:35;8.00;72.20
1337;DHT22;662;48.814;9.318;2023-12-20T10:13:09;8.00;71.00
1337;DHT22;662;48.814;9.318;2023-12-20T10:15:36;8.00;69.80
1337;DHT22;662;48.814;9.318;2023-12-20T10:18:02;8.10;69.50
1337;DHT22;662;48.814;9.318;2023-12-20T10:20:29;8.10;69.70
1337;DHT22;662;48.814;9.318;2023-12-20T10:22:56;8.20;69.50
1337;DHT22;662;48.814;9.318;2023-12-20T10:25:25;8.20;69.50
1337;DHT22;662;48.814;9.318;2023-12-20T10:28:14;8.20;69.10
1337;DHT22;662;48.814;9.318;2023-12-20T10:30:42;8.20;69.10
1337;DHT22;662;48.814;9.318;2023-12-20T10:33:09;8.30;69.30
1337;DHT22;662;48.814;9.318;2023-12-20T10:35:35;8.30;69.10
1337;DHT22;662;48.814;9.318;2023-12-20T10:38:04;8.30;68.20
1337;DHT22;662;48.814;9.318;2023-12-20T10:40:31;8.30;67.10
1337;DHT22;662;48.814;9.318;2023-12-20T10:42:58;8.40;66.60
1337;DHT22;662;48.814;9.318;2023-12-20T10:45:25;8.50;66.60
1337;DHT22;662;48.814;9.318;2023-12-20T10:47:51;8.50;65.80
1337;DHT22;662;48.814;9.318;2023-12-20T10:50:19;8.40;64.90
1337;DHT22;662;48.814;9.318;2023-12-20T10:52:47;8.40;64.70
1337;DHT22;662;48.814;9.318;2023-12-20T10:55:14;8.40;64.60
1337;DHT22;662;48.814;9.318;2023-12-20T10:57:40;8.40;65.40
1337;DHT22;662;48.814;9.318;2023-12-20T11:00:11;8.30;64.80
1337;DHT22;662;48.814;9.318;2023-12-20T11:02:40;8.30;64.60
1337;DHT22;662;48.814;9.318;2023-12-20T11:05:28;8.30;63.90
1337;DHT22;662;48.814;9.318;2023-12-20T11:08:03;8.20;63.80
1337;DHT22;662;48.814;9.318;2023-12-20T11:13:54;8.20;64.10
1337;DHT22;662;48.814;9.318;2023-12-20T11:16:20;8.20;64.10
1337;DHT22;662;48.814;9.318;2023-12-20T11:18:46;8.20;64.10
1337;DHT22;662;48.814;9.318;2023-12-20T11:21:12;8.30;64.20
1337;DHT22;662;48.814;9.318;2023-12-20T11:23:42;8.40;63.80
1337;DHT22;662;48.814;9.318;2023-12-20T11:26:08;8.50;63.30
1337;DHT22;662;48.814;9.318;2023-12-20T11:28:34;8.50;63.00
1337;DHT22;662;48.814;9.318;2023-12-20T11:31:01;8.60;62.10
1337;DHT22;662;48.814;9.318;2023-12-20T11:33:31;8.60;62.40
1337;DHT22;662;48.814;9.318;2023-12-20T11:35:57;8.60;62.50
1337;DHT22;662;48.814;9.318;2023-12-20T11:38:24;8.60;62.50
1337;DHT22;662;48.814;9.318;2023-12-20T11:40:51;8.60;62.20
1337;DHT22;662;48.814;9.318;2023-12-20T11:46:08;8.70;61.60
1337;DHT22;662;48.814;9.318;2023-12-20T11:48:38;8.60;61.80
1337;DHT22;662;48.814;9.318;2023-12-20T11:51:14;8.60;62.10
1337;DHT22;662;48.814;9.318;2023-12-20T11:53:43;8.60;61.70
1337;DHT22;662;48.814;9.318;2023-12-20T11:56:12;8.50;60.80
1337;DHT22;662;48.814;9.318;2023-12-20T11:58:38;8.50;60.50
1337;DHT22;662;48.814;9.318;2023-12-20T12:01:04;8.50;60.30
1337;DHT22;662;48.814;9.318;2023-12-20T12:03:32;8.50;60.40
1337;DHT22;662;48.814;9.318;2023-12-20T12:05:58;8.40;60.50
1337;DHT22;662;48.814;9.318;2023-12-20T12:08:24;8.40;60.70
1337;DHT22;662;48.814;9.318;2023-12-20T12:10:49;8.40;60.00
1337;DHT22;662;48.814;9.318;2023-12-20T12:13:15;8.40;60.10
1337;DHT22;662;48.814;9.318;2023-12-20T12:15:41;8.40;60.30
1337;DHT22;662;48.814;9.318;2023-12-20T12:18:10;8.40;60.70
1337;DHT22;662;48.814;9.318;2023-12-20T12:20:36;8.40;60.30
1337;DHT22;662;48.814;9.318;2023-12-20T12:23:03;8.40;60.40
1337;DHT22;662;48.814;9.318;2023-12-20T12:25:30;8.40;60.70
1337;DHT22;662;48.814;9.318;2023-12-20T12:27:59;8.50;61.00
1337;DHT22;662;48.814;9.318;2023-12-20T12:30:25;8.50;60.90
1337;DHT22;662;48.814;9.318;2023-12-20T12:32:56;8.60;60.50
1337;DHT22;662;48.814;9.318;2023-12-20T12:35:22;8.70;60.40
1337;DHT22;662;48.814;9.318;2023-12-20T12:37:48;8.70;60.00
1337;DHT22;662;48.814;9.318;2023-12-20T12:40:15;8.70;59.90
1337;DHT22;662;48.814;9.318;2023-12-20T12:42:42;8.80;59.80
1337;DHT22;662;48.814;9.318;2023-12-20T12:45:09;8.80;59.50
1337;DHT22;662;48.814;9.318;2023-12-20T12:47:35;8.90;59.30
1337;DHT22;662;48.814;9.318;2023-12-20T12:50:01;9.00;59.10
1337;DHT22;662;48.814;9.318;2023-12-20T12:52:30;9.00;59.00
1337;DHT22;662;48.814;9.318;2023-12-20T12:54:57;9.10;58.70
1337;DHT22;662;48.814;9.318;2023-12-20T12:57:23;9.10;58.50
1337;DHT22;662;48.814;9.318;2023-12-20T12:59:49;9.10;58.10
1337;DHT22;662;48.814;9.318;2023-12-20T13:02:15;9.10;58.00
1337;DHT22;662;48.814;9.318;2023-12-20T13:04:41;9.10;58.20
1337;DHT22;662;48.814;9.318;2023-12-20T13:07:08;9.10;58.00
1337;DHT22;662;48.814;9.318;2023-12-20T13:09:36;9.00;58.20
1337;DHT22;662;48.814;9.318;2023-12-20T13:12:01;9.00;58.30
1337;DHT22;662;48.814;9.318;2023-12-20T13:14:30;8.90;58.40
1337;DHT22;662;48.814;9.318;2023-12-20T13:16:56;8.90;58.70
1337;DHT22;662;48.814;9.318;2023-12-20T13:19:21;8.90;58.90
1337;DHT22;662;48.814;9.318;2023-12-20T13:21:47;8.90;59.20
1337;DHT22;662;48.814;9.318;2023-12-20T13:24:14;8.90;59.10
1337;DHT22;662;48.814;9.318;2023-12-20T13:26:42;8.90;58.90
1337;DHT22;662;48.814;9.318;2023-12-20T13:29:08;8.90;59.10
1337;DHT22;662;48.814;9.318;2023-12-20T13:31:34;8.90;59.10
1337;DHT22;662;48.814;9.318;2023-12-20T13:34:01;9.00;59.20
1337;DHT22;662;48.814;9.318;2023-12-20T13:36:27;9.00;59.80
1337;DHT22;662;48.814;9.318;2023-12-20T13:38:56;9.00;59.00
1337;DHT22;662;48.814;9.318;2023-12-20T13:41:24;9.00;58.90
1337;DHT22;662;48.814;9.318;2023-12-20T13:43:50;9.00;58.60
1337;DHT22;662;48.814;9.318;2023-12-20T13:46:16;9.00;58.90
1337;DHT22;662;48.814;9.318;2023-12-20T13:48:42;9.00;59.20
1337;DHT22;662;48.814;9.318;2023-12-20T13:51:08;9.00;59.40
1337;DHT22;662;48.814;9.318;2023-12-20T13:53:35;8.90;59.30
1337;DHT22;662;48.814;9.318;2023-12-20T13:56:08;8.90;59.30
1337;DHT22;662;48.814;9.318;2023-12-20T13:58:33;8.90;59.90
1337;DHT22;662;48.814;9.318;2023-12-20T14:01:09;8.80;59.50
1337;DHT22;662;48.814;9.318;2023-12-20T14:03:35;8.80;59.60
1337;DHT22;662;48.814;9.318;2023-12-20T14:06:01;8.80;59.80
1337;DHT22;662;48.814;9.318;2023-12-20T14:08:27;8.70;59.90
1337;DHT22;662;48.814;9.318;2023-12-20T14:10:53;8.70;60.10
1337;DHT22;662;48.814;9.318;2023-12-20T14:13:22;8.70;60.10
1337;DHT22;662;48.814;9.318;2023-12-20T14:15:47;8.60;60.00
1337;DHT22;662;48.814;9.318;2023-12-20T14:18:14;8.60;60.00
1337;DHT22;662;48.814;9.318;2023-12-20T14:20:40;8.60;59.90
1337;DHT22;662;48.814;9.318;2023-12-20T14:23:08;8.60;60.30
1337;DHT22;662;48.814;9.318;2023-12-20T14:25:35;8.60;60.50
1337;DHT22;662;48.814;9.318;2023-12-20T14:28:03;8.50;60.40
1337;DHT22;662;48.814;9.318;2023-12-20T14:30:29;8.50;60.90
1337;DHT22;662;48.814;9.318;2023-12-20T14:32:54;8.50;61.30
1337;DHT22;662;48.814;9.318;2023-12-20T14:35:20;8.50;61.60
1337;DHT22;662;48.814;9.318;2023-12-20T14:37:46;8.40;61.90
1337;DHT22;662;48.814;9.318;2023-12-20T14:40:12;8.40;62.20
1337;DHT22;662;48.814;9.318;2023-12-20T14:42:42;8.40;62.10
1337;DHT22;662;48.814;9.318;2023-12-20T14:45:09;8.40;62.00
1337;DHT22;662;48.814;9.318;2023-12-20T14:47:35;8.40;62.50
1337;DHT22;662;48.814;9.318;2023-12-20T14:50:03;8.40;63.00
1337;DHT22;662;48.814;9.318;2023-12-20T14:52:30;8.40;63.30
1337;DHT22;662;48.814;9.318;2023-12-20T14:54:56;8.30;63.50
1337;DHT22;662;48.814;9.318;2023-12-20T14:57:21;8.30;63.80
1337;DHT22;662;48.814;9.318;2023-12-20T14:59:47;8.30;63.90
1337;DHT22;662;48.814;9.318;2023-12-20T15:02:12;8.20;63.80
1337;DHT22;662;48.814;9.318;2023-12-20T15:04:38;8.20;63.70
1337;DHT22;662;48.814;9.318;2023-12-20T15:07:04;8.20;64.20
1337;DHT22;662;48.814;9.318;2023-12-20T15:09:31;8.20;64.50
1337;DHT22;662;48.814;9.318;2023-12-20T15:11:57;8.10;64.80
1337;DHT22;662;48.814;9.318;2023-12-20T15:14:22;8.10;65.20
1337;DHT22;662;48.814;9.318;2023-12-20T15:16:48;8.00;65.40
1337;DHT22;662;48.814;9.318;2023-12-20T15:19:14;8.00;65.70
1337;DHT22;662;48.814;9.318;2023-12-20T15:21:40;8.00;66.10
1337;DHT22;662;48.814;9.318;2023-12-20T15:24:11;8.00;66.40
1337;DHT22;662;48.814;9.318;2023-12-20T15:26:51;8.00;66.70
1337;DHT22;662;48.814;9.318;2023-12-20T15:29:17;8.00;67.00
1337;DHT22;662;48.814;9.318;2023-12-20T15:31:43;8.00;67.30
1337;DHT22;662;48.814;9.318;2023-12-20T15:34:09;7.90;67.40
1337;DHT22;662;48.814;9.318;2023-12-20T15:36:36;7.90;67.60
1337;DHT22;662;48.814;9.318;2023-12-20T15:39:02;7.90;67.80
1337;DHT22;662;48.814;9.318;2023-12-20T15:41:29;7.90;67.90
1337;DHT22;662;48.814;9.318;2023-12-20T15:43:54;7.90;68.10
1337;DHT22;662;48.814;9.318;2023-12-20T15:46:21;7.90;68.20
1337;DHT22;662;48.814;9.318;2023-12-20T15:48:47;7.80;68.00
1337;DHT22;662;48.814;9.318;2023-12-20T15:51:14;7.90;68.00
1337;DHT22;662;48.814;9.318;2023-12-20T15:53:39;7.90;67.70
1337;DHT22;662;48.814;9.318;2023-12-20T15:56:05;7.90;67.40
1337;DHT22;662;48.814;9.318;2023-12-20T15:58:31;7.80;67.20
1337;DHT22;662;48.814;9.318;2023-12-20T16:00:57;7.90;67.20
1337;DHT22;662;48.814;9.318;2023-12-20T16:03:23;7.80;67.10
1337;DHT22;662;48.814;9.318;2023-12-20T16:05:48;7.90;67.30
1337;DHT22;662;48.814;9.318;2023-12-20T16:08:14;7.80;67.20
1337;DHT22;662;48.814;9.318;2023-12-20T16:10:40;7.80;67.10
1337;DHT22;662;48.814;9.318;2023-12-20T16:13:06;7.80;67.30
1337;DHT22;662;48.814;9.318;2023-12-20T16:15:32;7.70;67.20
1337;DHT22;662;48.814;9.318;2023-12-20T16:17:58;7.70;67.60
1337;DHT22;662;48.814;9.318;2023-12-20T16:20:24;7.70;67.70
1337;DHT22;662;48.814;9.318;2023-12-20T16:22:50;7.70;67.80
1337;DHT22;662;48.814;9.318;2023-12-20T16:25:16;7.70;67.70
1337;DHT22;662;48.814;9.318;2023-12-20T16:27:42;7.70;67.60
1337;DHT22;662;48.814;9.318;2023-12-20T16:30:08;7.70;67.30
1337;DHT22;662;48.814;9.318;2023-12-20T16:32:34;7.60;67.10
1337;DHT22;662;48.814;9.318;2023-12-20T16:35:01;7.60;67.30